createdAt,value
2023-08-31T00:02:02.979Z,100.00
2023-08-31T00:05:06.229Z,100.00
2023-08-31T00:08:09.128Z,100.00
2023-08-31T00:11:11.808Z,100.00
2023-08-31T00:14:14.245Z,100.00
2023-08-31T00:17:17.012Z,100.00
2023-08-31T00:20:20.054Z,100.00
2023-08-31T00:23:23.049Z,100.00
2023-08-31T00:26:25.856Z,100.00
2023-08-31T00:29:28.910Z,100.00
2023-08-31T00:32:31.300Z,100.00
2023-08-31T00:35:35.350Z,100.00
2023-08-31T00:38:37.964Z,100.00
2023-08-31T00:41:40.753Z,100.00
2023-08-31T00:44:43.238Z,100.00
2023-08-31T00:47:48.873Z,100.00
2023-08-31T00:50:52.224Z,100.00
2023-08-31T00:53:56.465Z,100.00
2023-08-31T00:56:59.080Z,100.00
2023-08-31T01:00:01.752Z,100.00
2023-08-31T01:03:14.531Z,100.00
2023-08-31T01:06:42.287Z,100.00
2023-08-31T01:09:49.311Z,100.00
2023-08-31T01:12:56.474Z,100.00
2023-08-31T01:16:04.786Z,100.00
2023-08-31T01:19:23.321Z,100.00
2023-08-31T01:22:28.515Z,100.00
2023-08-31T01:25:33.593Z,100.00
2023-08-31T01:28:36.089Z,100.00
2023-08-31T01:31:46.354Z,100.00
2023-08-31T01:34:51.694Z,100.00
2023-08-31T01:38:05.994Z,100.00
2023-08-31T01:41:12.645Z,100.00
2023-08-31T01:44:18.064Z,100.00
2023-08-31T01:47:21.227Z,100.00
2023-08-31T01:50:24.279Z,100.00
2023-08-31T01:53:27.214Z,100.00
2023-08-31T01:56:30.077Z,100.00
2023-08-31T01:59:32.605Z,100.00
2023-08-31T02:02:36.537Z,100.00
2023-08-31T02:05:39.332Z,100.00
2023-08-31T02:08:41.821Z,100.00
2023-08-31T02:11:46.010Z,100.00
2023-08-31T02:14:48.697Z,100.00
2023-08-31T02:17:51.592Z,100.00
2023-08-31T02:20:54.604Z,100.00
2023-08-31T02:23:57.290Z,100.00
2023-08-31T02:26:59.990Z,100.00
2023-08-31T02:30:04.275Z,100.00
2023-08-31T02:33:07.112Z,100.00
2023-08-31T02:36:09.706Z,100.00
2023-08-31T02:39:12.450Z,100.00
2023-08-31T02:42:17.900Z,100.00
2023-08-31T02:45:21.908Z,100.00
2023-08-31T02:48:24.456Z,100.00
2023-08-31T02:51:27.306Z,100.00
2023-08-31T02:54:29.751Z,100.00
2023-08-31T02:57:32.559Z,100.00
2023-08-31T03:00:35.281Z,100.00
2023-08-31T03:03:42.438Z,100.00
2023-08-31T03:06:44.888Z,100.00
2023-08-31T03:09:50.920Z,100.00
2023-08-31T03:12:53.390Z,100.00
2023-08-31T03:15:57.649Z,100.00
2023-08-31T03:19:00.358Z,100.00
2023-08-31T03:22:03.204Z,100.00
2023-08-31T03:25:05.910Z,100.00
2023-08-31T03:28:09.443Z,100.00
2023-08-31T03:31:11.926Z,100.00
2023-08-31T03:34:14.655Z,100.00
2023-08-31T03:37:17.533Z,100.00
2023-08-31T03:40:20.442Z,100.00
2023-08-31T03:43:23.016Z,100.00
2023-08-31T03:46:27.892Z,100.00
2023-08-31T03:49:31.403Z,100.00
2023-08-31T03:52:34.194Z,100.00
2023-08-31T03:55:38.137Z,100.00
2023-08-31T03:58:40.848Z,100.00
2023-08-31T04:01:43.681Z,100.00
2023-08-31T04:04:47.475Z,100.00
2023-08-31T04:07:50.213Z,100.00
2023-08-31T04:10:53.044Z,100.00
2023-08-31T04:13:57.077Z,100.00
2023-08-31T04:16:59.958Z,100.00
2023-08-31T04:20:02.684Z,100.00
2023-08-31T04:23:05.414Z,100.00
2023-08-31T04:26:12.936Z,100.00
2023-08-31T04:29:15.595Z,100.00
2023-08-31T04:32:18.079Z,100.00
2023-08-31T04:35:20.958Z,100.00
2023-08-31T04:38:23.466Z,100.00
2023-08-31T04:41:26.227Z,100.00
2023-08-31T04:44:28.578Z,100.00
2023-08-31T04:47:31.314Z,100.00
2023-08-31T04:50:33.723Z,100.00
2023-08-31T04:53:36.356Z,100.00
2023-08-31T04:56:38.770Z,100.00
2023-08-31T04:59:41.576Z,100.00
2023-08-31T05:02:44.822Z,100.00
2023-08-31T05:05:47.844Z,100.00
2023-08-31T05:08:50.327Z,100.00
2023-08-31T05:11:53.045Z,100.00
2023-08-31T05:14:55.498Z,100.00
2023-08-31T05:17:58.854Z,100.00
2023-08-31T05:21:01.389Z,100.00
2023-08-31T05:24:04.467Z,100.00
2023-08-31T05:27:06.889Z,100.00
2023-08-31T05:30:10.355Z,100.00
2023-08-31T05:33:13.037Z,100.00
2023-08-31T05:36:15.893Z,100.00
2023-08-31T05:39:18.236Z,100.00
2023-08-31T05:42:20.967Z,100.00
2023-08-31T05:45:24.325Z,100.00
2023-08-31T05:48:27.242Z,100.00
2023-08-31T05:51:29.694Z,100.00
2023-08-31T05:54:32.509Z,100.00
2023-08-31T05:57:34.890Z,100.00
2023-08-31T06:00:37.498Z,100.00
2023-08-31T06:03:40.177Z,100.00
2023-08-31T06:06:42.613Z,100.00
2023-08-31T06:09:45.376Z,100.00
2023-08-31T06:12:47.921Z,100.00
2023-08-31T06:15:50.891Z,100.00
2023-08-31T06:18:53.335Z,100.00
2023-08-31T06:21:55.998Z,100.00
2023-08-31T06:24:58.381Z,100.00
2023-08-31T06:28:01.094Z,100.00
2023-08-31T06:31:03.743Z,100.00
2023-08-31T06:34:06.564Z,100.00
2023-08-31T06:37:09.090Z,100.00
2023-08-31T06:40:12.185Z,100.00
2023-08-31T06:43:15.016Z,100.00
2023-08-31T06:46:24.907Z,100.00
2023-08-31T06:49:28.756Z,100.00
2023-08-31T06:52:32.917Z,100.00
2023-08-31T06:55:35.533Z,100.00
2023-08-31T06:58:38.290Z,100.00
2023-08-31T07:01:40.855Z,100.00
2023-08-31T07:04:44.515Z,100.00
2023-08-31T07:07:46.944Z,100.00
2023-08-31T07:10:53.189Z,100.00
2023-08-31T07:13:55.795Z,100.00
2023-08-31T07:16:58.522Z,100.00
2023-08-31T07:20:00.932Z,99.64
2023-08-31T07:23:04.053Z,99.09
2023-08-31T07:26:06.705Z,97.67
2023-08-31T07:29:10.063Z,98.08
2023-08-31T07:32:12.649Z,95.76
2023-08-31T07:35:15.772Z,92.10
2023-08-31T07:38:18.153Z,89.36
2023-08-31T07:41:20.870Z,89.34
2023-08-31T07:44:23.371Z,93.60
2023-08-31T07:47:26.222Z,94.15
2023-08-31T07:50:28.742Z,93.76
2023-08-31T07:53:31.460Z,94.45
2023-08-31T07:56:33.839Z,92.81
2023-08-31T07:59:36.456Z,93.41
2023-08-31T08:02:38.942Z,92.50
2023-08-31T08:05:42.699Z,92.57
2023-08-31T08:08:45.416Z,92.73
2023-08-31T08:11:48.516Z,91.46
2023-08-31T08:14:51.020Z,94.77
2023-08-31T08:17:55.059Z,94.54
2023-08-31T08:20:57.555Z,93.19
2023-08-31T08:24:00.358Z,92.10
2023-08-31T08:27:02.813Z,92.53
2023-08-31T08:30:06.236Z,92.66
2023-08-31T08:33:10.499Z,92.46
2023-08-31T08:36:13.880Z,91.92
2023-08-31T08:39:16.388Z,90.50
2023-08-31T08:42:20.274Z,87.90
2023-08-31T08:45:26.948Z,86.25
2023-08-31T08:48:29.901Z,84.07
2023-08-31T08:51:32.863Z,83.25
2023-08-31T08:54:39.417Z,84.08
2023-08-31T08:57:42.971Z,82.52
2023-08-31T09:00:47.885Z,79.76
2023-08-31T09:03:51.151Z,79.34
2023-08-31T09:06:54.191Z,77.85
2023-08-31T09:09:56.640Z,78.47
2023-08-31T09:13:01.631Z,80.95
2023-08-31T09:16:04.250Z,82.02
2023-08-31T09:19:22.777Z,82.64
2023-08-31T09:22:25.206Z,84.96
2023-08-31T09:25:27.914Z,82.39
2023-08-31T09:28:33.162Z,83.35
2023-08-31T09:31:36.044Z,85.78
2023-08-31T09:34:39.448Z,82.64
2023-08-31T09:37:42.335Z,84.11
2023-08-31T09:40:46.623Z,83.85
2023-08-31T09:43:50.343Z,85.06
2023-08-31T09:46:53.966Z,84.00
2023-08-31T09:49:57.512Z,83.83
2023-08-31T09:53:08.327Z,82.84
2023-08-31T09:56:14.673Z,79.31
2023-08-31T09:59:17.849Z,78.08
2023-08-31T10:02:20.761Z,74.10
2023-08-31T10:05:26.100Z,72.69
2023-08-31T10:08:32.561Z,75.28
2023-08-31T10:11:36.519Z,74.70
2023-08-31T10:14:39.149Z,77.63
2023-08-31T10:17:41.945Z,76.20
2023-08-31T10:20:45.456Z,75.97
2023-08-31T10:23:49.181Z,76.58
2023-08-31T10:26:51.623Z,73.18
2023-08-31T10:29:54.419Z,73.60
2023-08-31T10:33:20.806Z,71.23
2023-08-31T10:36:23.540Z,69.52
2023-08-31T10:39:38.072Z,69.47
2023-08-31T10:42:45.403Z,68.65
2023-08-31T10:45:47.926Z,67.64
2023-08-31T10:48:53.896Z,67.53
2023-08-31T10:51:58.625Z,67.59
2023-08-31T10:55:06.293Z,67.62
2023-08-31T10:58:12.074Z,66.43
2023-08-31T11:01:14.838Z,64.29
2023-08-31T11:04:17.414Z,62.17
2023-08-31T11:07:24.297Z,61.09
2023-08-31T11:10:30.770Z,57.36
2023-08-31T11:13:33.714Z,61.01
2023-08-31T11:16:39.583Z,57.07
2023-08-31T11:19:42.470Z,51.66
2023-08-31T11:22:47.785Z,48.15
2023-08-31T11:25:51.506Z,47.52
2023-08-31T11:28:57.396Z,44.70
2023-08-31T11:32:03.496Z,46.11
2023-08-31T11:35:08.220Z,44.95
2023-08-31T11:38:10.981Z,42.45
2023-08-31T11:41:13.514Z,42.15
2023-08-31T11:44:18.210Z,44.95
2023-08-31T11:47:21.801Z,42.95
2023-08-31T11:50:25.693Z,36.56
2023-08-31T11:53:28.673Z,38.05
2023-08-31T11:56:44.638Z,39.72
2023-08-31T11:59:47.413Z,38.53
2023-08-31T12:03:00.161Z,35.71
2023-08-31T12:06:04.748Z,39.59
2023-08-31T12:09:10.809Z,40.19
2023-08-31T12:12:22.820Z,40.36
2023-08-31T12:15:32.018Z,39.98
2023-08-31T12:18:38.601Z,41.46
2023-08-31T12:21:43.063Z,39.68
2023-08-31T12:24:45.757Z,41.45
2023-08-31T12:27:48.164Z,44.11
2023-08-31T12:30:57.683Z,41.35
2023-08-31T12:34:01.746Z,36.63
2023-08-31T12:37:05.885Z,36.71
2023-08-31T12:40:11.008Z,38.05
2023-08-31T12:43:14.175Z,36.40
2023-08-31T12:46:18.093Z,41.82
2023-08-31T12:49:21.553Z,40.29
2023-08-31T12:52:25.209Z,37.87
2023-08-31T12:55:27.992Z,34.09
2023-08-31T12:58:30.455Z,33.39
2023-08-31T13:01:34.453Z,35.06
2023-08-31T13:04:38.044Z,34.78
2023-08-31T13:07:41.621Z,36.64
2023-08-31T13:10:44.548Z,32.54
2023-08-31T13:13:47.267Z,31.78
2023-08-31T13:16:49.742Z,35.89
2023-08-31T13:19:52.568Z,40.11
2023-08-31T13:22:55.053Z,39.38
2023-08-31T13:25:57.795Z,40.71
2023-08-31T13:29:00.232Z,38.73
2023-08-31T13:32:03.578Z,39.71
2023-08-31T13:35:08.972Z,41.65
2023-08-31T13:38:11.928Z,41.29
2023-08-31T13:41:14.753Z,39.32
2023-08-31T13:44:17.592Z,42.44
2023-08-31T13:47:20.013Z,40.73
2023-08-31T13:50:22.863Z,37.95
2023-08-31T13:53:25.813Z,38.33
2023-08-31T13:56:28.457Z,40.40
2023-08-31T13:59:30.787Z,40.58
2023-08-31T14:02:33.556Z,37.01
2023-08-31T14:05:36.335Z,36.90
2023-08-31T14:08:38.816Z,38.09
2023-08-31T14:11:41.848Z,36.46
2023-08-31T14:14:47.178Z,38.46
2023-08-31T14:17:54.554Z,39.98
2023-08-31T14:20:59.170Z,39.10
2023-08-31T14:24:01.917Z,39.38
2023-08-31T14:27:05.084Z,39.39
2023-08-31T14:30:08.361Z,41.63
2023-08-31T14:33:10.894Z,43.00
2023-08-31T14:36:15.846Z,42.41
2023-08-31T14:39:19.377Z,41.90
2023-08-31T14:42:22.556Z,42.33
2023-08-31T14:45:25.027Z,39.88
2023-08-31T14:48:31.720Z,39.95
2023-08-31T14:51:34.367Z,39.19
2023-08-31T14:54:37.363Z,40.81
2023-08-31T14:57:43.283Z,40.27
2023-08-31T15:00:46.759Z,42.55
2023-08-31T15:03:49.167Z,43.17
2023-08-31T15:06:54.834Z,42.40
2023-08-31T15:09:57.269Z,40.67
2023-08-31T15:13:00.030Z,40.23
2023-08-31T15:16:02.830Z,40.40
2023-08-31T15:19:05.597Z,42.27
2023-08-31T15:22:08.087Z,42.78
2023-08-31T15:25:11.010Z,43.91
2023-08-31T15:28:13.795Z,43.62
2023-08-31T15:31:17.432Z,44.11
2023-08-31T15:34:19.956Z,44.41
2023-08-31T15:37:22.583Z,44.55
2023-08-31T15:40:25.143Z,44.68
2023-08-31T15:43:32.903Z,44.72
2023-08-31T15:46:35.363Z,45.60
2023-08-31T15:49:38.213Z,46.80
2023-08-31T15:52:40.713Z,47.81
2023-08-31T15:55:47.676Z,47.57
2023-08-31T15:58:50.022Z,47.76
2023-08-31T16:01:52.755Z,48.25
2023-08-31T16:04:55.463Z,48.75
2023-08-31T16:07:57.823Z,48.72
2023-08-31T16:11:04.698Z,48.89
2023-08-31T16:14:07.228Z,49.32
2023-08-31T16:17:09.942Z,49.74
2023-08-31T16:20:12.647Z,50.35
2023-08-31T16:23:15.380Z,51.31
2023-08-31T16:26:17.740Z,50.18
2023-08-31T16:29:20.394Z,49.95
2023-08-31T16:32:22.910Z,49.56
2023-08-31T16:35:25.661Z,49.54
2023-08-31T16:38:28.270Z,49.30
2023-08-31T16:41:32.588Z,47.78
2023-08-31T16:44:35.129Z,48.23
2023-08-31T16:47:38.661Z,49.67
2023-08-31T16:50:41.115Z,50.26
2023-08-31T16:53:43.969Z,51.02
2023-08-31T16:56:49.274Z,52.67
2023-08-31T16:59:52.092Z,53.41
2023-08-31T17:02:54.671Z,54.83
2023-08-31T17:05:57.866Z,55.41
2023-08-31T17:09:00.474Z,56.42
2023-08-31T17:12:03.663Z,56.77
2023-08-31T17:15:07.650Z,57.73
2023-08-31T17:18:10.471Z,58.54
2023-08-31T17:21:13.027Z,59.18
2023-08-31T17:24:15.673Z,60.54
2023-08-31T17:27:20.581Z,59.96
2023-08-31T17:30:23.399Z,60.68
2023-08-31T17:33:29.408Z,61.68
2023-08-31T17:36:32.185Z,60.88
2023-08-31T17:39:34.562Z,61.71
2023-08-31T17:42:38.177Z,62.89
2023-08-31T17:45:40.582Z,64.80
2023-08-31T17:48:45.862Z,64.65
2023-08-31T17:51:50.476Z,65.82
2023-08-31T17:54:53.299Z,66.87
2023-08-31T17:57:56.111Z,69.61
2023-08-31T18:00:58.891Z,69.31
2023-08-31T18:04:02.059Z,69.41
2023-08-31T18:07:06.380Z,70.29
2023-08-31T18:10:09.835Z,71.95
2023-08-31T18:13:12.274Z,72.31
2023-08-31T18:16:15.129Z,72.85
2023-08-31T18:19:18.077Z,73.43
2023-08-31T18:22:20.819Z,72.71
2023-08-31T18:25:23.214Z,73.83
2023-08-31T18:28:25.878Z,73.25
2023-08-31T18:31:28.375Z,73.75
2023-08-31T18:34:31.477Z,73.62
2023-08-31T18:37:34.173Z,73.88
2023-08-31T18:40:37.134Z,73.95
2023-08-31T18:43:39.729Z,73.62
2023-08-31T18:46:42.855Z,73.37
2023-08-31T18:49:45.378Z,73.04
2023-08-31T18:52:49.971Z,72.60
2023-08-31T18:55:56.980Z,72.50
2023-08-31T18:58:59.659Z,72.64
2023-08-31T19:02:04.235Z,73.30
2023-08-31T19:05:08.090Z,73.43
2023-08-31T19:08:10.694Z,73.44
2023-08-31T19:11:14.498Z,73.81
2023-08-31T19:14:16.936Z,75.23
2023-08-31T19:17:19.614Z,75.56
2023-08-31T19:20:21.973Z,76.71
2023-08-31T19:23:24.685Z,76.57
2023-08-31T19:26:27.083Z,76.45
2023-08-31T19:29:29.815Z,76.39
2023-08-31T19:32:32.315Z,76.96
2023-08-31T19:38:40.404Z,77.64
2023-08-31T19:41:43.032Z,77.90
2023-08-31T19:44:46.345Z,79.01
2023-08-31T19:47:49.248Z,79.38
2023-08-31T19:50:53.244Z,79.47
2023-08-31T19:53:56.228Z,79.85
2023-08-31T19:56:58.712Z,80.38
2023-08-31T20:00:01.683Z,81.18
2023-08-31T20:03:04.428Z,82.30
2023-08-31T20:06:07.657Z,83.71
2023-08-31T20:09:11.443Z,83.75
2023-08-31T20:12:14.215Z,84.30
2023-08-31T20:15:16.858Z,85.55
2023-08-31T20:18:19.744Z,86.78
2023-08-31T20:21:23.484Z,87.72
2023-08-31T20:24:26.145Z,87.83
2023-08-31T20:27:28.506Z,88.20
2023-08-31T20:30:31.434Z,89.33
2023-08-31T20:33:33.875Z,90.20
2023-08-31T20:36:36.744Z,91.28
2023-08-31T20:39:40.507Z,91.71
2023-08-31T20:42:43.661Z,93.00
2023-08-31T20:45:46.116Z,93.89
2023-08-31T20:48:48.875Z,94.51
2023-08-31T20:51:51.364Z,95.07
2023-08-31T20:54:56.086Z,95.37
2023-08-31T20:57:58.544Z,95.97
2023-08-31T21:01:08.978Z,96.58
2023-08-31T21:04:11.650Z,97.17
2023-08-31T21:07:14.696Z,98.43
2023-08-31T21:10:17.277Z,99.74
2023-08-31T21:13:20.076Z,100.00
2023-08-31T21:16:23.339Z,100.00
2023-08-31T21:19:26.762Z,100.00
2023-08-31T21:22:29.942Z,100.00
2023-08-31T21:25:33.428Z,100.00
2023-08-31T21:28:36.237Z,100.00
2023-08-31T21:31:39.279Z,100.00
2023-08-31T21:34:42.416Z,100.00
2023-08-31T21:37:45.240Z,100.00
2023-08-31T21:40:50.547Z,100.00
2023-08-31T21:43:53.286Z,100.00
2023-08-31T21:46:55.654Z,100.00
2023-08-31T21:49:58.398Z,100.00
2023-08-31T21:53:01.140Z,100.00
2023-08-31T21:56:05.591Z,100.00
2023-08-31T21:59:08.127Z,100.00
2023-08-31T22:02:10.975Z,100.00
2023-08-31T22:05:15.323Z,100.00
2023-08-31T22:08:17.997Z,100.00
2023-08-31T22:11:21.943Z,100.00
2023-08-31T22:14:24.889Z,100.00
2023-08-31T22:17:27.809Z,100.00
2023-08-31T22:20:33.294Z,100.00
2023-08-31T22:23:36.312Z,100.00
2023-08-31T22:26:38.942Z,100.00
2023-08-31T22:29:41.814Z,100.00
2023-08-31T22:32:44.544Z,100.00
2023-08-31T22:35:47.722Z,100.00
2023-08-31T22:38:50.173Z,100.00
2023-08-31T22:41:52.908Z,100.00
2023-08-31T22:44:55.548Z,100.00
2023-08-31T22:47:58.338Z,100.00
2023-08-31T22:51:02.173Z,100.00
2023-08-31T22:54:05.077Z,100.00
2023-08-31T22:57:07.829Z,100.00
2023-08-31T23:00:12.725Z,100.00
2023-08-31T23:03:16.844Z,100.00
2023-08-31T23:06:19.625Z,100.00
2023-08-31T23:09:22.517Z,100.00
2023-08-31T23:12:25.264Z,100.00
2023-08-31T23:15:27.729Z,100.00
2023-08-31T23:18:30.487Z,100.00
2023-08-31T23:21:42.228Z,100.00
2023-08-31T23:24:46.196Z,100.00
2023-08-31T23:27:48.534Z,100.00
2023-08-31T23:30:51.267Z,100.00
2023-08-31T23:33:53.968Z,100.00
2023-08-31T23:36:57.061Z,100.00
2023-08-31T23:39:59.648Z,100.00
2023-08-31T23:43:02.903Z,100.00
2023-08-31T23:46:05.357Z,100.00
2023-08-31T23:49:08.193Z,100.00
2023-08-31T23:52:11.761Z,100.00
2023-08-31T23:55:14.700Z,100.00
2023-08-31T23:58:17.233Z,100.00
